createdAt,value
2023-01-17T00:02:20.683Z,2.10
2023-01-17T00:05:06.066Z,2.00
2023-01-17T00:07:51.870Z,2.20
2023-01-17T00:10:23.098Z,2.10
2023-01-17T00:12:53.007Z,2.75
2023-01-17T00:15:23.293Z,2.35
2023-01-17T00:17:51.737Z,2.22
2023-01-17T00:20:40.002Z,2.15
2023-01-17T00:23:26.794Z,2.00
2023-01-17T00:26:05.188Z,2.38
2023-01-17T00:28:34.207Z,2.50
2023-01-17T00:31:00.970Z,2.40
2023-01-17T00:33:28.024Z,2.33
2023-01-17T00:35:56.054Z,2.00
2023-01-17T00:38:24.628Z,2.08
2023-01-17T00:40:51.495Z,2.50
2023-01-17T00:43:41.267Z,2.10
2023-01-17T00:46:26.957Z,2.40
2023-01-17T00:49:12.668Z,2.05
2023-01-17T00:51:57.972Z,2.30
2023-01-17T00:54:43.497Z,2.45
2023-01-17T00:57:28.874Z,2.50
2023-01-17T01:00:15.347Z,1.95
2023-01-17T01:03:00.777Z,2.40
2023-01-17T01:05:46.510Z,2.30
2023-01-17T01:08:36.764Z,2.20
2023-01-17T01:11:24.662Z,2.08
2023-01-17T01:14:10.132Z,2.40
2023-01-17T01:16:56.745Z,2.33
2023-01-17T01:19:42.640Z,2.10
2023-01-17T01:22:28.571Z,2.33
2023-01-17T01:25:13.729Z,2.42
2023-01-17T01:27:58.787Z,2.30
2023-01-17T01:30:44.097Z,2.28
2023-01-17T01:33:21.013Z,2.40
2023-01-17T01:35:50.765Z,2.33
2023-01-17T01:38:19.257Z,2.10
2023-01-17T01:40:48.940Z,2.25
2023-01-17T01:43:19.688Z,2.33
2023-01-17T01:45:52.204Z,2.60
2023-01-17T01:48:39.257Z,2.22
2023-01-17T01:51:10.225Z,2.40
2023-01-17T01:53:42.025Z,2.50
2023-01-17T01:56:13.701Z,2.38
2023-01-17T01:58:44.876Z,2.60
2023-01-17T02:01:13.138Z,2.13
2023-01-17T02:03:43.612Z,2.40
2023-01-17T02:06:25.818Z,2.35
2023-01-17T02:08:53.798Z,2.00
2023-01-17T02:11:23.181Z,2.17
2023-01-17T02:13:51.267Z,2.85
2023-01-17T02:16:32.390Z,2.60
2023-01-17T02:19:21.703Z,2.50
2023-01-17T02:22:07.207Z,2.40
2023-01-17T02:24:56.812Z,2.67
2023-01-17T02:27:28.471Z,2.53
2023-01-17T02:30:33.248Z,2.30
2023-01-17T02:33:14.376Z,2.13
2023-01-17T02:35:53.790Z,2.35
2023-01-17T02:38:38.082Z,2.28
2023-01-17T02:41:08.586Z,2.38
2023-01-17T02:43:38.325Z,2.10
2023-01-17T02:46:09.648Z,2.00
2023-01-17T02:48:38.487Z,2.33
2023-01-17T02:51:29.861Z,2.50
2023-01-17T02:54:20.810Z,2.10
2023-01-17T02:57:00.458Z,2.17
2023-01-17T02:59:41.721Z,1.92
2023-01-17T03:02:20.967Z,2.88
2023-01-17T03:04:53.486Z,2.28
2023-01-17T03:07:25.418Z,2.72
2023-01-17T03:09:59.508Z,2.53
2023-01-17T03:12:29.892Z,2.58
2023-01-17T03:14:58.189Z,2.40
2023-01-17T03:17:33.549Z,2.33
2023-01-17T03:20:01.249Z,2.30
2023-01-17T03:22:29.025Z,2.47
2023-01-17T03:24:57.056Z,2.40
2023-01-17T03:27:24.995Z,2.13
2023-01-17T03:29:52.979Z,2.00
2023-01-17T03:32:20.682Z,2.00
2023-01-17T03:34:49.848Z,2.15
2023-01-17T03:37:17.607Z,2.83
2023-01-17T03:39:45.759Z,2.30
2023-01-17T03:42:13.511Z,2.58
2023-01-17T03:44:41.447Z,2.58
2023-01-17T03:47:12.033Z,2.30
2023-01-17T03:49:40.790Z,2.75
2023-01-17T03:52:10.111Z,2.63
2023-01-17T03:54:37.900Z,3.22
2023-01-17T03:57:06.209Z,2.50
2023-01-17T03:59:34.233Z,3.00
2023-01-17T04:02:02.360Z,2.58
2023-01-17T04:04:30.407Z,2.63
2023-01-17T04:06:58.124Z,2.65
2023-01-17T04:09:27.558Z,2.97
2023-01-17T04:11:55.449Z,2.80
2023-01-17T04:14:23.316Z,2.67
2023-01-17T04:16:51.327Z,2.50
2023-01-17T04:19:19.450Z,2.42
2023-01-17T04:21:47.761Z,2.53
2023-01-17T04:24:17.816Z,2.25
2023-01-17T04:26:47.637Z,2.35
2023-01-17T04:29:15.539Z,2.70
2023-01-17T04:31:43.775Z,2.40
2023-01-17T04:34:12.001Z,2.50
2023-01-17T04:36:39.968Z,2.20
2023-01-17T04:39:08.293Z,2.78
2023-01-17T04:41:37.231Z,2.80
2023-01-17T04:44:07.035Z,2.90
2023-01-17T04:46:35.211Z,3.13
2023-01-17T04:49:03.433Z,3.13
2023-01-17T04:51:31.362Z,3.10
2023-01-17T04:53:59.321Z,3.00
2023-01-17T04:56:27.212Z,2.83
2023-01-17T04:58:57.528Z,2.78
2023-01-17T05:01:27.091Z,2.70
2023-01-17T05:03:55.072Z,2.45
2023-01-17T05:06:22.817Z,2.78
2023-01-17T05:08:50.830Z,3.22
2023-01-17T05:11:18.927Z,2.78
2023-01-17T05:13:49.261Z,3.00
2023-01-17T05:16:19.421Z,4.32
2023-01-17T05:18:52.435Z,4.10
2023-01-17T05:23:48.212Z,3.03
2023-01-17T05:26:15.999Z,2.55
2023-01-17T05:28:44.024Z,2.78
2023-01-17T05:31:11.990Z,2.40
2023-01-17T05:33:40.067Z,2.60
2023-01-17T05:36:10.374Z,2.42
2023-01-17T05:38:38.583Z,2.70
2023-01-17T05:41:07.092Z,4.07
2023-01-17T05:43:35.156Z,3.40
2023-01-17T05:46:03.185Z,3.45
2023-01-17T05:48:31.558Z,3.20
2023-01-17T05:50:59.847Z,4.88
2023-01-17T05:53:29.317Z,5.05
2023-01-17T05:55:57.726Z,3.70
2023-01-17T05:58:25.893Z,3.22
2023-01-17T06:00:56.233Z,3.15
2023-01-17T06:03:24.359Z,3.15
2023-01-17T06:05:52.262Z,2.78
2023-01-17T06:08:20.462Z,3.22
2023-01-17T06:10:50.070Z,3.10
2023-01-17T06:13:21.861Z,3.22
2023-01-17T06:15:50.321Z,3.13
2023-01-17T06:18:19.772Z,2.72
2023-01-17T06:20:53.162Z,3.20
2023-01-17T06:23:21.231Z,2.83
2023-01-17T06:25:51.426Z,2.83
2023-01-17T06:28:21.849Z,3.03
2023-01-17T06:30:51.565Z,3.08
2023-01-17T06:33:20.578Z,2.80
2023-01-17T06:35:50.621Z,3.20
2023-01-17T06:38:19.059Z,3.35
2023-01-17T06:40:47.885Z,3.97
2023-01-17T06:43:18.131Z,3.65
2023-01-17T06:45:46.205Z,3.78
2023-01-17T06:48:15.520Z,3.75
2023-01-17T06:50:43.872Z,4.40
2023-01-17T06:53:12.123Z,4.43
2023-01-17T06:55:40.597Z,4.18
2023-01-17T06:58:10.255Z,4.75
2023-01-17T07:00:41.079Z,4.13
2023-01-17T07:03:18.620Z,5.07
2023-01-17T07:05:46.780Z,5.95
2023-01-17T07:08:16.846Z,5.18
2023-01-17T07:10:45.919Z,4.70
2023-01-17T07:13:14.702Z,4.53
2023-01-17T07:15:43.929Z,3.75
2023-01-17T07:18:12.992Z,4.00
2023-01-17T07:20:43.869Z,3.67
2023-01-17T07:23:12.503Z,3.67
2023-01-17T07:25:41.204Z,3.40
2023-01-17T07:28:10.055Z,3.20
2023-01-17T07:30:38.191Z,3.42
2023-01-17T07:33:07.496Z,3.65
2023-01-17T07:35:35.617Z,3.50
2023-01-17T07:38:05.747Z,3.70
2023-01-17T07:40:41.545Z,3.17
2023-01-17T07:43:14.420Z,4.00
2023-01-17T07:45:44.523Z,5.40
2023-01-17T07:48:15.629Z,4.65
2023-01-17T07:50:43.901Z,4.40
2023-01-17T07:53:12.723Z,3.88
2023-01-17T07:55:41.274Z,11.10
2023-01-17T07:58:11.371Z,7.57
2023-01-17T08:00:39.465Z,4.80
2023-01-17T08:03:07.406Z,5.22
2023-01-17T08:05:36.818Z,6.78
2023-01-17T08:08:05.492Z,4.80
2023-01-17T08:10:34.501Z,3.92
2023-01-17T08:13:02.474Z,3.85
2023-01-17T08:15:30.467Z,4.20
2023-01-17T08:17:58.671Z,3.17
2023-01-17T08:20:28.137Z,3.92
2023-01-17T08:22:58.135Z,4.10
2023-01-17T08:25:27.093Z,4.03
2023-01-17T08:27:58.678Z,4.18
2023-01-17T08:30:27.518Z,4.40
2023-01-17T08:32:55.647Z,4.10
2023-01-17T08:35:24.397Z,4.07
2023-01-17T08:37:55.922Z,4.63
2023-01-17T08:40:25.919Z,5.47
2023-01-17T08:42:57.712Z,6.45
2023-01-17T08:45:26.032Z,8.10
2023-01-17T08:47:54.693Z,7.95
2023-01-17T08:50:23.067Z,9.90
2023-01-17T08:52:53.343Z,11.50
2023-01-17T08:55:22.038Z,11.60
2023-01-17T08:57:51.557Z,9.05
2023-01-17T09:00:20.629Z,14.20
2023-01-17T09:02:48.751Z,10.80
2023-01-17T09:05:16.665Z,15.30
2023-01-17T09:07:44.820Z,13.00
2023-01-17T09:10:13.909Z,14.43
2023-01-17T09:12:41.936Z,10.73
2023-01-17T09:15:14.811Z,7.68
2023-01-17T09:20:12.083Z,4.38
2023-01-17T09:22:39.924Z,4.40
2023-01-17T09:25:08.795Z,4.47
2023-01-17T09:27:36.624Z,4.53
2023-01-17T09:30:05.601Z,4.30
2023-01-17T09:32:35.258Z,4.10
2023-01-17T09:35:05.521Z,5.00
2023-01-17T09:37:33.596Z,6.22
2023-01-17T09:40:01.349Z,5.25
2023-01-17T09:42:35.799Z,5.53
2023-01-17T09:45:04.410Z,5.40
2023-01-17T09:47:41.655Z,4.50
2023-01-17T09:50:21.896Z,3.83
2023-01-17T09:52:49.829Z,4.93
2023-01-17T09:55:18.866Z,5.60
2023-01-17T09:57:57.579Z,3.60
2023-01-17T10:00:40.635Z,4.22
2023-01-17T10:03:30.985Z,5.13
2023-01-17T10:06:17.513Z,10.35
2023-01-17T10:09:04.801Z,4.53
2023-01-17T10:11:48.147Z,4.35
2023-01-17T10:14:33.553Z,3.72
2023-01-17T10:17:13.545Z,4.53
2023-01-17T10:20:01.568Z,5.18
2023-01-17T10:22:51.270Z,5.60
2023-01-17T10:25:48.064Z,5.20
2023-01-17T10:28:18.258Z,5.57
2023-01-17T10:30:51.117Z,5.68
2023-01-17T10:35:57.144Z,4.85
2023-01-17T10:38:32.596Z,4.90
2023-01-17T10:41:06.399Z,5.32
2023-01-17T10:43:53.887Z,4.90
2023-01-17T10:46:28.594Z,4.55
2023-01-17T10:48:58.275Z,4.15
2023-01-17T10:51:43.998Z,4.43
2023-01-17T10:54:27.903Z,3.42
2023-01-17T10:56:56.022Z,3.70
2023-01-17T10:59:30.595Z,2.92
2023-01-17T11:01:58.481Z,3.30
2023-01-17T11:04:37.507Z,3.05
2023-01-17T11:07:14.431Z,2.80
2023-01-17T11:09:44.315Z,2.53
2023-01-17T11:12:21.990Z,2.63
2023-01-17T11:14:59.842Z,3.20
2023-01-17T11:17:28.941Z,3.03
2023-01-17T11:20:09.322Z,3.83
2023-01-17T11:22:39.095Z,7.38
2023-01-17T11:25:08.351Z,6.40
2023-01-17T11:27:39.666Z,4.72
2023-01-17T11:30:18.108Z,4.38
2023-01-17T11:32:53.970Z,4.43
2023-01-17T11:35:25.810Z,3.80
2023-01-17T11:38:04.662Z,7.15
2023-01-17T11:40:42.859Z,4.65
2023-01-17T11:43:21.090Z,5.10
2023-01-17T11:46:02.940Z,6.85
2023-01-17T11:48:37.520Z,5.18
2023-01-17T11:51:15.289Z,5.32
2023-01-17T11:53:48.390Z,6.70
2023-01-17T11:56:23.463Z,6.43
2023-01-17T11:58:52.471Z,6.28
2023-01-17T12:01:34.870Z,4.63
2023-01-17T12:04:23.042Z,5.78
2023-01-17T12:07:06.388Z,4.75
2023-01-17T12:09:43.898Z,4.47
2023-01-17T12:12:39.995Z,4.32
2023-01-17T12:15:22.361Z,7.88
2023-01-17T12:18:10.933Z,9.75
2023-01-17T12:20:49.495Z,6.13
2023-01-17T12:23:32.611Z,4.20
2023-01-17T12:28:54.659Z,3.03
2023-01-17T12:31:33.666Z,3.05
2023-01-17T12:34:15.779Z,3.10
2023-01-17T12:36:49.623Z,3.40
2023-01-17T12:39:22.804Z,2.97
2023-01-17T12:41:58.203Z,3.42
2023-01-17T12:44:39.605Z,4.00
2023-01-17T12:47:08.208Z,3.80
2023-01-17T12:49:43.477Z,4.28
2023-01-17T12:52:19.525Z,4.10
2023-01-17T12:54:52.724Z,3.78
2023-01-17T12:57:26.864Z,3.90
2023-01-17T13:00:03.011Z,4.38
2023-01-17T13:02:39.067Z,4.75
2023-01-17T13:05:15.329Z,4.25
2023-01-17T13:07:50.386Z,4.60
2023-01-17T13:10:35.411Z,4.20
2023-01-17T13:13:20.429Z,4.80
2023-01-17T13:15:50.512Z,4.63
2023-01-17T13:18:23.340Z,4.70
2023-01-17T13:21:04.923Z,5.38
2023-01-17T13:23:45.818Z,5.07
2023-01-17T13:26:27.861Z,5.13
2023-01-17T13:29:06.241Z,4.47
2023-01-17T13:31:48.347Z,3.88
2023-01-17T13:34:35.183Z,4.30
2023-01-17T13:37:32.553Z,4.07
2023-01-17T13:40:30.100Z,3.80
2023-01-17T13:43:00.953Z,3.67
2023-01-17T13:45:32.732Z,3.90
2023-01-17T13:48:32.206Z,3.20
2023-01-17T13:51:03.753Z,2.92
2023-01-17T13:53:55.038Z,3.00
2023-01-17T13:56:37.101Z,3.25
2023-01-17T13:59:30.687Z,2.60
2023-01-17T14:02:00.352Z,2.50
2023-01-17T14:05:03.681Z,2.63
2023-01-17T14:07:35.035Z,3.33
2023-01-17T14:10:03.264Z,2.28
2023-01-17T14:12:40.049Z,3.40
2023-01-17T14:15:22.559Z,2.75
2023-01-17T14:17:58.857Z,3.08
2023-01-17T14:20:53.892Z,2.65
2023-01-17T14:23:56.374Z,5.60
2023-01-17T14:26:43.054Z,4.95
2023-01-17T14:29:59.353Z,3.10
2023-01-17T14:32:32.649Z,3.08
2023-01-17T14:35:03.016Z,3.17
2023-01-17T14:37:47.591Z,2.92
2023-01-17T14:40:25.997Z,2.95
2023-01-17T14:43:02.167Z,2.72
2023-01-17T14:45:33.132Z,2.83
2023-01-17T14:48:04.241Z,2.80
2023-01-17T14:50:37.692Z,2.50
2023-01-17T14:53:17.431Z,2.00
2023-01-17T14:55:55.510Z,2.70
2023-01-17T14:58:25.104Z,2.40
2023-01-17T15:00:56.415Z,2.42
2023-01-17T15:03:24.524Z,2.55
2023-01-17T15:05:55.964Z,2.55
2023-01-17T15:08:26.951Z,2.33
2023-01-17T15:11:00.209Z,2.55
2023-01-17T15:13:43.776Z,2.50
2023-01-17T15:16:21.091Z,5.93
2023-01-17T15:18:49.182Z,2.40
2023-01-17T15:21:20.762Z,2.38
2023-01-17T15:23:52.555Z,2.08
2023-01-17T15:26:23.303Z,2.22
2023-01-17T15:28:52.004Z,1.88
2023-01-17T15:31:26.645Z,2.15
2023-01-17T15:33:57.965Z,2.08
2023-01-17T15:36:33.143Z,2.28
2023-01-17T15:39:03.425Z,2.00
2023-01-17T15:41:34.878Z,2.00
2023-01-17T15:44:03.569Z,2.17
2023-01-17T15:46:39.333Z,2.25
2023-01-17T15:49:17.856Z,1.98
2023-01-17T15:51:56.572Z,2.50
2023-01-17T15:54:35.298Z,2.67
2023-01-17T15:57:18.145Z,2.53
2023-01-17T15:59:49.030Z,2.60
2023-01-17T16:02:43.189Z,2.40
2023-01-17T16:05:34.709Z,6.10
2023-01-17T16:08:30.230Z,3.45
2023-01-17T16:11:02.151Z,2.90
2023-01-17T16:13:31.804Z,2.97
2023-01-17T16:16:27.122Z,2.85
2023-01-17T16:19:01.531Z,3.55
2023-01-17T16:21:30.982Z,3.10
2023-01-17T16:24:00.943Z,2.90
2023-01-17T16:26:30.116Z,2.88
2023-01-17T16:28:58.133Z,3.28
2023-01-17T16:31:26.462Z,3.20
2023-01-17T16:33:54.697Z,3.00
2023-01-17T16:36:23.150Z,3.17
2023-01-17T16:38:52.389Z,3.17
2023-01-17T16:41:23.127Z,3.28
2023-01-17T16:44:00.015Z,3.35
2023-01-17T16:46:30.070Z,3.00
2023-01-17T16:49:00.747Z,3.10
2023-01-17T16:51:29.529Z,2.58
2023-01-17T16:53:58.250Z,3.22
2023-01-17T16:56:27.754Z,2.83
2023-01-17T16:58:56.926Z,3.38
2023-01-17T17:01:25.434Z,3.50
2023-01-17T17:03:53.802Z,3.40
2023-01-17T17:06:21.955Z,3.75
2023-01-17T17:08:51.035Z,3.67
2023-01-17T17:11:22.005Z,6.18
2023-01-17T17:13:52.325Z,16.20
2023-01-17T17:16:23.180Z,12.98
2023-01-17T17:18:57.351Z,7.03
2023-01-17T17:21:26.018Z,4.82
2023-01-17T17:23:57.438Z,4.65
2023-01-17T17:26:27.720Z,4.80
2023-01-17T17:28:58.664Z,4.25
2023-01-17T17:31:27.917Z,4.65
2023-01-17T17:33:59.829Z,4.20
2023-01-17T17:36:28.095Z,4.78
2023-01-17T17:38:59.046Z,4.30
2023-01-17T17:41:29.664Z,4.70
2023-01-17T17:44:01.209Z,4.35
2023-01-17T17:46:31.104Z,5.00
2023-01-17T17:49:01.011Z,4.70
2023-01-17T17:51:31.666Z,4.53
2023-01-17T17:54:02.696Z,4.78
2023-01-17T17:56:33.033Z,4.55
2023-01-17T17:59:03.887Z,4.00
2023-01-17T18:01:32.121Z,4.13
2023-01-17T18:04:03.561Z,4.22
2023-01-17T18:06:32.323Z,6.82
2023-01-17T18:09:00.347Z,8.82
2023-01-17T18:11:30.550Z,6.40
2023-01-17T18:14:03.652Z,4.90
2023-01-17T18:16:35.593Z,4.28
2023-01-17T18:19:05.174Z,4.70
2023-01-17T18:21:36.796Z,4.45
2023-01-17T18:24:10.934Z,4.85
2023-01-17T18:26:41.892Z,4.35
2023-01-17T18:29:15.092Z,4.35
2023-01-17T18:31:44.976Z,4.82
2023-01-17T18:34:15.383Z,4.25
2023-01-17T18:36:45.338Z,4.88
2023-01-17T18:39:15.232Z,4.55
2023-01-17T18:41:43.473Z,4.60
2023-01-17T18:44:13.730Z,4.43
2023-01-17T18:46:43.936Z,5.03
2023-01-17T18:49:16.390Z,4.70
2023-01-17T18:51:47.677Z,5.00
2023-01-17T18:54:16.331Z,4.55
2023-01-17T18:56:44.400Z,5.30
2023-01-17T18:59:18.154Z,4.95
2023-01-17T19:01:47.406Z,4.72
2023-01-17T19:04:17.953Z,4.82
2023-01-17T19:06:49.764Z,4.43
2023-01-17T19:09:19.249Z,4.43
2023-01-17T19:11:48.263Z,5.32
2023-01-17T19:14:18.574Z,4.90
2023-01-17T19:16:47.097Z,5.10
2023-01-17T19:19:17.063Z,4.82
2023-01-17T19:21:45.195Z,4.80
2023-01-17T19:24:15.189Z,5.07
2023-01-17T19:26:44.514Z,5.28
2023-01-17T19:29:13.468Z,5.10
2023-01-17T19:31:44.854Z,4.95
2023-01-17T19:34:16.116Z,4.80
2023-01-17T19:36:44.718Z,4.85
2023-01-17T19:39:13.257Z,5.38
2023-01-17T19:41:44.480Z,5.18
2023-01-17T19:44:14.933Z,5.57
2023-01-17T19:46:46.191Z,5.20
2023-01-17T19:49:16.718Z,6.07
2023-01-17T19:51:45.208Z,5.40
2023-01-17T19:54:15.418Z,5.60
2023-01-17T19:56:43.742Z,5.15
2023-01-17T19:59:13.761Z,5.28
2023-01-17T20:01:42.847Z,5.15
2023-01-17T20:04:13.421Z,5.20
2023-01-17T20:06:42.676Z,5.38
2023-01-17T20:09:10.875Z,5.38
2023-01-17T20:11:42.811Z,5.75
2023-01-17T20:14:15.784Z,5.38
2023-01-17T20:19:14.312Z,4.55
2023-01-17T20:21:43.110Z,5.05
2023-01-17T20:24:13.693Z,4.95
2023-01-17T20:26:42.195Z,4.85
2023-01-17T20:29:13.791Z,5.22
2023-01-17T20:31:43.013Z,5.38
2023-01-17T20:34:13.600Z,5.65
2023-01-17T20:36:42.914Z,5.38
2023-01-17T20:39:14.475Z,5.07
2023-01-17T20:41:43.706Z,5.57
2023-01-17T20:44:13.976Z,5.20
2023-01-17T20:46:42.148Z,4.82
2023-01-17T20:49:14.696Z,5.25
2023-01-17T20:51:45.152Z,5.75
2023-01-17T20:54:14.931Z,4.93
2023-01-17T20:56:43.589Z,4.82
2023-01-17T20:59:14.635Z,5.15
2023-01-17T21:01:43.683Z,5.22
2023-01-17T21:04:12.972Z,4.90
2023-01-17T21:06:41.941Z,5.18
2023-01-17T21:09:13.252Z,5.45
2023-01-17T21:11:41.013Z,5.15
2023-01-17T21:14:08.763Z,5.00
2023-01-17T21:16:37.090Z,5.65
2023-01-17T21:19:05.086Z,5.57
2023-01-17T21:21:32.897Z,6.35
2023-01-17T21:24:00.785Z,5.95
2023-01-17T21:26:30.180Z,6.10
2023-01-17T21:29:00.354Z,6.00
2023-01-17T21:31:30.195Z,6.03
2023-01-17T21:33:59.948Z,6.22
2023-01-17T21:36:29.484Z,5.53
2023-01-17T21:38:59.057Z,5.60
2023-01-17T21:41:31.207Z,6.13
2023-01-17T21:44:00.698Z,5.75
2023-01-17T21:46:29.494Z,5.68
2023-01-17T21:48:57.967Z,6.05
2023-01-17T21:51:46.697Z,6.32
2023-01-17T21:54:14.676Z,6.05
2023-01-17T21:57:01.723Z,5.80
2023-01-17T21:59:32.265Z,5.65
2023-01-17T22:02:00.385Z,6.95
2023-01-17T22:04:29.540Z,5.68
2023-01-17T22:06:57.510Z,5.70
2023-01-17T22:09:25.470Z,5.20
2023-01-17T22:11:54.787Z,5.68
2023-01-17T22:14:22.679Z,6.10
2023-01-17T22:16:50.603Z,5.05
2023-01-17T22:19:18.650Z,5.05
2023-01-17T22:21:46.542Z,5.25
2023-01-17T22:24:16.883Z,5.35
2023-01-17T22:26:44.827Z,5.15
2023-01-17T22:29:17.059Z,5.85
2023-01-17T22:31:45.662Z,5.20
2023-01-17T22:34:14.046Z,5.22
2023-01-17T22:36:42.897Z,5.22
2023-01-17T22:39:11.729Z,5.72
2023-01-17T22:41:39.895Z,5.30
2023-01-17T22:44:08.609Z,5.18
2023-01-17T22:46:39.351Z,5.10
2023-01-17T22:49:08.626Z,5.60
2023-01-17T22:51:36.684Z,4.93
2023-01-17T22:54:05.226Z,5.55
2023-01-17T22:56:34.690Z,4.85
2023-01-17T22:59:03.044Z,5.25
2023-01-17T23:01:32.902Z,4.97
2023-01-17T23:04:04.537Z,5.20
2023-01-17T23:06:36.415Z,5.32
2023-01-17T23:09:07.374Z,4.75
2023-01-17T23:11:40.815Z,5.60
2023-01-17T23:14:11.284Z,5.20
2023-01-17T23:16:54.315Z,5.15
2023-01-17T23:19:24.619Z,4.97
2023-01-17T23:22:11.602Z,5.28
2023-01-17T23:24:43.266Z,4.80
2023-01-17T23:27:30.639Z,5.10
2023-01-17T23:29:58.653Z,5.18
2023-01-17T23:32:26.938Z,5.95
2023-01-17T23:34:56.375Z,5.32
2023-01-17T23:37:51.103Z,5.45
2023-01-17T23:40:19.587Z,5.28
2023-01-17T23:43:05.537Z,5.30
2023-01-17T23:45:35.994Z,4.85
2023-01-17T23:48:05.651Z,5.40
2023-01-17T23:50:34.961Z,5.15
2023-01-17T23:53:06.999Z,5.47
2023-01-17T23:55:36.449Z,5.13
2023-01-17T23:58:04.489Z,5.18
